< < Back
Terminal Aerodrome Forecast


Current Version              Previous Versions:   1  2  3  4  5  6  7  8  9  

Terminal Aerodrome Forecast

719
FTUS44 KOHX 241300 AAA
TAFBNA
TAF AMD
KBNA 241328Z 2413/2512 35007KT P6SM BKN017 BKN024 OVC045
     FM241500 34007G15KT P6SM BKN030
     FM242000 36008G16KT P6SM SCT040 SCT250
     FM250200 02004KT P6SM SCT250
      TEMPO 2510/2511 5SM BR=



Latest METAR

468
SAUS70 KWBC 250056
MTRBNA
METAR KBNA 250053Z 36011KT 10SM BKN055 27/16 A2999 RMK AO2 SLP150
T02670156


USA.gov is the U.S. government's official web portal to all federal, state and local government web resources and services.